sensor_id;sensor_type;location;lat;lon;timestamp;pressure;altitude;pressure_sealevel;temperature
58929;BMP180;44713;53.378;10.022;2023-04-21T00:01:11;101790.00;;;7.00
58929;BMP180;44713;53.378;10.022;2023-04-21T00:03:37;101780.00;;;7.00
58929;BMP180;44713;53.378;10.022;2023-04-21T00:06:06;101788.00;;;6.90
58929;BMP180;44713;53.378;10.022;2023-04-21T00:08:31;101787.00;;;6.90
58929;BMP180;44713;53.378;10.022;2023-04-21T00:10:57;101786.00;;;6.80
58929;BMP180;44713;53.378;10.022;2023-04-21T00:13:22;101786.00;;;6.80
58929;BMP180;44713;53.378;10.022;2023-04-21T00:15:48;101788.00;;;6.80
58929;BMP180;44713;53.378;10.022;2023-04-21T00:18:14;101788.00;;;6.80
58929;BMP180;44713;53.378;10.022;2023-04-21T00:20:39;101794.00;;;6.80
58929;BMP180;44713;53.378;10.022;2023-04-21T00:23:05;101788.00;;;6.80
58929;BMP180;44713;53.378;10.022;2023-04-21T00:25:31;101783.00;;;6.80
58929;BMP180;44713;53.378;10.022;2023-04-21T00:27:56;101776.00;;;6.70
58929;BMP180;44713;53.378;10.022;2023-04-21T00:30:21;101776.00;;;6.60
58929;BMP180;44713;53.378;10.022;2023-04-21T00:32:47;101776.00;;;6.70
58929;BMP180;44713;53.378;10.022;2023-04-21T00:35:12;101781.00;;;6.70
58929;BMP180;44713;53.378;10.022;2023-04-21T00:37:37;101778.00;;;6.80
58929;BMP180;44713;53.378;10.022;2023-04-21T00:40:05;101772.00;;;6.70
58929;BMP180;44713;53.378;10.022;2023-04-21T00:42:30;101767.00;;;6.70
58929;BMP180;44713;53.378;10.022;2023-04-21T00:44:55;101771.00;;;6.60
58929;BMP180;44713;53.378;10.022;2023-04-21T00:47:22;101767.00;;;6.50
58929;BMP180;44713;53.378;10.022;2023-04-21T00:49:48;101774.00;;;6.50
58929;BMP180;44713;53.378;10.022;2023-04-21T00:52:16;101770.00;;;6.50
58929;BMP180;44713;53.378;10.022;2023-04-21T00:54:42;101771.00;;;6.50
58929;BMP180;44713;53.378;10.022;2023-04-21T00:57:08;101767.00;;;6.40
58929;BMP180;44713;53.378;10.022;2023-04-21T00:59:33;101763.00;;;6.40
58929;BMP180;44713;53.378;10.022;2023-04-21T01:01:59;101771.00;;;6.40
58929;BMP180;44713;53.378;10.022;2023-04-21T01:04:24;101766.00;;;6.40
58929;BMP180;44713;53.378;10.022;2023-04-21T01:06:50;101766.00;;;6.40
58929;BMP180;44713;53.378;10.022;2023-04-21T01:09:16;101766.00;;;6.40
58929;BMP180;44713;53.378;10.022;2023-04-21T01:11:41;101766.00;;;6.30
58929;BMP180;44713;53.378;10.022;2023-04-21T01:14:07;101760.00;;;6.30
58929;BMP180;44713;53.378;10.022;2023-04-21T01:16:32;101766.00;;;6.20
58929;BMP180;44713;53.378;10.022;2023-04-21T01:19:01;101755.00;;;6.20
58929;BMP180;44713;53.378;10.022;2023-04-21T01:21:38;101759.00;;;6.20
58929;BMP180;44713;53.378;10.022;2023-04-21T01:24:04;101750.00;;;6.20
58929;BMP180;44713;53.378;10.022;2023-04-21T01:26:30;101750.00;;;6.20
58929;BMP180;44713;53.378;10.022;2023-04-21T01:28:56;101742.00;;;6.10
58929;BMP180;44713;53.378;10.022;2023-04-21T01:31:21;101751.00;;;6.10
58929;BMP180;44713;53.378;10.022;2023-04-21T01:33:48;101748.00;;;6.10
58929;BMP180;44713;53.378;10.022;2023-04-21T01:36:14;101740.00;;;6.20
58929;BMP180;44713;53.378;10.022;2023-04-21T01:38:40;101747.00;;;6.30
58929;BMP180;44713;53.378;10.022;2023-04-21T01:41:07;101744.00;;;6.30
58929;BMP180;44713;53.378;10.022;2023-04-21T01:43:33;101745.00;;;6.40
58929;BMP180;44713;53.378;10.022;2023-04-21T01:45:58;101740.00;;;6.50
58929;BMP180;44713;53.378;10.022;2023-04-21T01:48:23;101734.00;;;6.50
58929;BMP180;44713;53.378;10.022;2023-04-21T01:50:49;101736.00;;;6.50
58929;BMP180;44713;53.378;10.022;2023-04-21T01:53:14;101737.00;;;6.50
58929;BMP180;44713;53.378;10.022;2023-04-21T01:55:39;101730.00;;;6.50
58929;BMP180;44713;53.378;10.022;2023-04-21T01:58:07;101733.00;;;6.40
58929;BMP180;44713;53.378;10.022;2023-04-21T02:00:33;101726.00;;;6.50
58929;BMP180;44713;53.378;10.022;2023-04-21T02:02:58;101722.00;;;6.50
58929;BMP180;44713;53.378;10.022;2023-04-21T02:05:24;101729.00;;;6.40
58929;BMP180;44713;53.378;10.022;2023-04-21T02:07:49;101729.00;;;6.50
58929;BMP180;44713;53.378;10.022;2023-04-21T02:10:15;101733.00;;;6.40
58929;BMP180;44713;53.378;10.022;2023-04-21T02:12:42;101723.00;;;6.40
58929;BMP180;44713;53.378;10.022;2023-04-21T02:15:08;101724.00;;;6.30
58929;BMP180;44713;53.378;10.022;2023-04-21T02:17:34;101723.00;;;6.40
58929;BMP180;44713;53.378;10.022;2023-04-21T02:20:00;101724.00;;;6.30
58929;BMP180;44713;53.378;10.022;2023-04-21T02:22:26;101722.00;;;6.30
58929;BMP180;44713;53.378;10.022;2023-04-21T02:24:51;101727.00;;;6.30
58929;BMP180;44713;53.378;10.022;2023-04-21T02:27:18;101728.00;;;6.20
58929;BMP180;44713;53.378;10.022;2023-04-21T02:29:43;101725.00;;;6.30
58929;BMP180;44713;53.378;10.022;2023-04-21T02:32:08;101727.00;;;6.20
58929;BMP180;44713;53.378;10.022;2023-04-21T02:34:34;101724.00;;;6.20
58929;BMP180;44713;53.378;10.022;2023-04-21T02:36:59;101735.00;;;6.20
58929;BMP180;44713;53.378;10.022;2023-04-21T02:39:24;101734.00;;;6.20
58929;BMP180;44713;53.378;10.022;2023-04-21T02:41:50;101731.00;;;6.20
58929;BMP180;44713;53.378;10.022;2023-04-21T02:44:15;101727.00;;;6.10
58929;BMP180;44713;53.378;10.022;2023-04-21T02:46:41;101721.00;;;6.10
58929;BMP180;44713;53.378;10.022;2023-04-21T02:49:07;101720.00;;;6.10
58929;BMP180;44713;53.378;10.022;2023-04-21T02:51:32;101725.00;;;6.10
58929;BMP180;44713;53.378;10.022;2023-04-21T02:53:57;101723.00;;;6.10
58929;BMP180;44713;53.378;10.022;2023-04-21T02:56:24;101723.00;;;6.00
58929;BMP180;44713;53.378;10.022;2023-04-21T02:58:50;101726.00;;;6.00
58929;BMP180;44713;53.378;10.022;2023-04-21T03:01:15;101724.00;;;6.00
58929;BMP180;44713;53.378;10.022;2023-04-21T03:03:40;101722.00;;;5.90
58929;BMP180;44713;53.378;10.022;2023-04-21T03:06:06;101719.00;;;5.90
58929;BMP180;44713;53.378;10.022;2023-04-21T03:08:31;101730.00;;;6.00
58929;BMP180;44713;53.378;10.022;2023-04-21T03:10:57;101724.00;;;6.00
58929;BMP180;44713;53.378;10.022;2023-04-21T03:13:23;101728.00;;;5.80
58929;BMP180;44713;53.378;10.022;2023-04-21T03:15:51;101730.00;;;5.80
58929;BMP180;44713;53.378;10.022;2023-04-21T03:18:17;101730.00;;;5.80
58929;BMP180;44713;53.378;10.022;2023-04-21T03:20:42;101719.00;;;5.80
58929;BMP180;44713;53.378;10.022;2023-04-21T03:23:08;101714.00;;;5.70
58929;BMP180;44713;53.378;10.022;2023-04-21T03:25:33;101715.00;;;5.70
58929;BMP180;44713;53.378;10.022;2023-04-21T03:27:59;101718.00;;;5.70
58929;BMP180;44713;53.378;10.022;2023-04-21T03:30:25;101714.00;;;5.70
58929;BMP180;44713;53.378;10.022;2023-04-21T03:32:51;101711.00;;;5.60
58929;BMP180;44713;53.378;10.022;2023-04-21T03:35:16;101714.00;;;5.60
58929;BMP180;44713;53.378;10.022;2023-04-21T03:37:42;101714.00;;;5.60
58929;BMP180;44713;53.378;10.022;2023-04-21T03:40:07;101713.00;;;5.60
58929;BMP180;44713;53.378;10.022;2023-04-21T03:42:36;101709.00;;;5.60
58929;BMP180;44713;53.378;10.022;2023-04-21T03:45:02;101705.00;;;5.60
58929;BMP180;44713;53.378;10.022;2023-04-21T03:47:31;101710.00;;;5.60
58929;BMP180;44713;53.378;10.022;2023-04-21T03:49:57;101704.00;;;5.50
58929;BMP180;44713;53.378;10.022;2023-04-21T03:52:22;101703.00;;;5.50
58929;BMP180;44713;53.378;10.022;2023-04-21T03:54:48;101696.00;;;5.50
58929;BMP180;44713;53.378;10.022;2023-04-21T03:57:13;101702.00;;;5.50
58929;BMP180;44713;53.378;10.022;2023-04-21T03:59:39;101698.00;;;5.40
58929;BMP180;44713;53.378;10.022;2023-04-21T04:02:04;101703.00;;;5.40
58929;BMP180;44713;53.378;10.022;2023-04-21T04:04:30;101699.00;;;5.40
58929;BMP180;44713;53.378;10.022;2023-04-21T04:06:55;101708.00;;;5.30
58929;BMP180;44713;53.378;10.022;2023-04-21T04:09:21;101707.00;;;5.20
58929;BMP180;44713;53.378;10.022;2023-04-21T04:11:47;101704.00;;;5.20
58929;BMP180;44713;53.378;10.022;2023-04-21T04:14:12;101703.00;;;5.20
58929;BMP180;44713;53.378;10.022;2023-04-21T04:16:37;101702.00;;;5.20
58929;BMP180;44713;53.378;10.022;2023-04-21T04:19:03;101704.00;;;5.20
58929;BMP180;44713;53.378;10.022;2023-04-21T04:21:29;101703.00;;;5.30
58929;BMP180;44713;53.378;10.022;2023-04-21T04:23:56;101695.00;;;5.20
58929;BMP180;44713;53.378;10.022;2023-04-21T04:26:23;101697.00;;;5.10
58929;BMP180;44713;53.378;10.022;2023-04-21T04:28:50;101700.00;;;5.10
58929;BMP180;44713;53.378;10.022;2023-04-21T04:31:16;101705.00;;;5.10
58929;BMP180;44713;53.378;10.022;2023-04-21T04:33:42;101703.00;;;5.10
58929;BMP180;44713;53.378;10.022;2023-04-21T04:36:08;101697.00;;;5.10
58929;BMP180;44713;53.378;10.022;2023-04-21T04:38:33;101701.00;;;5.10
58929;BMP180;44713;53.378;10.022;2023-04-21T04:41:02;101694.00;;;5.20
58929;BMP180;44713;53.378;10.022;2023-04-21T04:43:27;101704.00;;;5.10
58929;BMP180;44713;53.378;10.022;2023-04-21T04:45:53;101703.00;;;5.10
58929;BMP180;44713;53.378;10.022;2023-04-21T04:48:18;101704.00;;;5.10
58929;BMP180;44713;53.378;10.022;2023-04-21T04:50:47;101701.00;;;5.10
58929;BMP180;44713;53.378;10.022;2023-04-21T04:53:12;101702.00;;;5.10
58929;BMP180;44713;53.378;10.022;2023-04-21T04:55:38;101710.00;;;5.00
58929;BMP180;44713;53.378;10.022;2023-04-21T04:58:03;101713.00;;;5.00
58929;BMP180;44713;53.378;10.022;2023-04-21T05:00:28;101710.00;;;5.00
58929;BMP180;44713;53.378;10.022;2023-04-21T05:02:54;101715.00;;;5.10
58929;BMP180;44713;53.378;10.022;2023-04-21T05:05:19;101710.00;;;5.20
58929;BMP180;44713;53.378;10.022;2023-04-21T05:07:46;101713.00;;;5.20
58929;BMP180;44713;53.378;10.022;2023-04-21T05:10:11;101711.00;;;5.30
58929;BMP180;44713;53.378;10.022;2023-04-21T05:12:37;101709.00;;;5.30
58929;BMP180;44713;53.378;10.022;2023-04-21T05:15:03;101708.00;;;5.30
58929;BMP180;44713;53.378;10.022;2023-04-21T05:17:28;101709.00;;;5.30
58929;BMP180;44713;53.378;10.022;2023-04-21T05:19:55;101701.00;;;5.30
58929;BMP180;44713;53.378;10.022;2023-04-21T05:22:20;101710.00;;;5.40
58929;BMP180;44713;53.378;10.022;2023-04-21T05:24:45;101720.00;;;5.40
58929;BMP180;44713;53.378;10.022;2023-04-21T05:27:11;101717.00;;;5.50
58929;BMP180;44713;53.378;10.022;2023-04-21T05:29:36;101715.00;;;5.50
58929;BMP180;44713;53.378;10.022;2023-04-21T05:32:01;101703.00;;;5.60
58929;BMP180;44713;53.378;10.022;2023-04-21T05:34:27;101705.00;;;5.60
58929;BMP180;44713;53.378;10.022;2023-04-21T05:36:53;101714.00;;;5.70
58929;BMP180;44713;53.378;10.022;2023-04-21T05:39:18;101707.00;;;5.80
58929;BMP180;44713;53.378;10.022;2023-04-21T05:41:43;101701.00;;;5.90
58929;BMP180;44713;53.378;10.022;2023-04-21T05:44:09;101706.00;;;6.00
58929;BMP180;44713;53.378;10.022;2023-04-21T05:46:34;101721.00;;;6.10
58929;BMP180;44713;53.378;10.022;2023-04-21T05:49:00;101713.00;;;6.10
58929;BMP180;44713;53.378;10.022;2023-04-21T05:51:28;101713.00;;;6.20
58929;BMP180;44713;53.378;10.022;2023-04-21T05:53:53;101714.00;;;6.30
58929;BMP180;44713;53.378;10.022;2023-04-21T05:56:18;101711.00;;;6.30
58929;BMP180;44713;53.378;10.022;2023-04-21T05:58:44;101706.00;;;6.40
58929;BMP180;44713;53.378;10.022;2023-04-21T06:01:09;101709.00;;;6.50
58929;BMP180;44713;53.378;10.022;2023-04-21T06:03:35;101708.00;;;6.70
58929;BMP180;44713;53.378;10.022;2023-04-21T06:06:02;101702.00;;;6.90
58929;BMP180;44713;53.378;10.022;2023-04-21T06:08:28;101704.00;;;7.10
58929;BMP180;44713;53.378;10.022;2023-04-21T06:10:53;101706.00;;;7.30
58929;BMP180;44713;53.378;10.022;2023-04-21T06:13:19;101699.00;;;7.40
58929;BMP180;44713;53.378;10.022;2023-04-21T06:15:44;101694.00;;;7.60
58929;BMP180;44713;53.378;10.022;2023-04-21T06:18:10;101692.00;;;7.80
58929;BMP180;44713;53.378;10.022;2023-04-21T06:20:36;101695.00;;;8.10
58929;BMP180;44713;53.378;10.022;2023-04-21T06:23:01;101688.00;;;8.10
58929;BMP180;44713;53.378;10.022;2023-04-21T06:25:27;101682.00;;;8.10
58929;BMP180;44713;53.378;10.022;2023-04-21T06:27:52;101684.00;;;8.40
58929;BMP180;44713;53.378;10.022;2023-04-21T06:30:17;101685.00;;;8.40
58929;BMP180;44713;53.378;10.022;2023-04-21T06:32:43;101682.00;;;8.60
58929;BMP180;44713;53.378;10.022;2023-04-21T06:35:12;101681.00;;;8.80
58929;BMP180;44713;53.378;10.022;2023-04-21T06:37:42;101671.00;;;8.90
58929;BMP180;44713;53.378;10.022;2023-04-21T06:40:07;101678.00;;;9.00
58929;BMP180;44713;53.378;10.022;2023-04-21T06:42:33;101678.00;;;9.10
58929;BMP180;44713;53.378;10.022;2023-04-21T06:44:59;101672.00;;;9.30
58929;BMP180;44713;53.378;10.022;2023-04-21T06:47:24;101670.00;;;9.30
58929;BMP180;44713;53.378;10.022;2023-04-21T06:49:50;101675.00;;;9.40
58929;BMP180;44713;53.378;10.022;2023-04-21T06:52:16;101675.00;;;9.50
58929;BMP180;44713;53.378;10.022;2023-04-21T06:54:41;101669.00;;;9.60
58929;BMP180;44713;53.378;10.022;2023-04-21T06:57:06;101673.00;;;9.70
58929;BMP180;44713;53.378;10.022;2023-04-21T06:59:32;101667.00;;;9.80
58929;BMP180;44713;53.378;10.022;2023-04-21T07:01:58;101667.00;;;10.00
58929;BMP180;44713;53.378;10.022;2023-04-21T07:04:23;101667.00;;;10.10
58929;BMP180;44713;53.378;10.022;2023-04-21T07:06:54;101651.00;;;10.20
58929;BMP180;44713;53.378;10.022;2023-04-21T07:09:20;101655.00;;;10.30
58929;BMP180;44713;53.378;10.022;2023-04-21T07:11:45;101649.00;;;10.30
58929;BMP180;44713;53.378;10.022;2023-04-21T07:14:10;101654.00;;;10.40
58929;BMP180;44713;53.378;10.022;2023-04-21T07:16:36;101655.00;;;10.50
58929;BMP180;44713;53.378;10.022;2023-04-21T07:19:01;101646.00;;;10.60
58929;BMP180;44713;53.378;10.022;2023-04-21T07:21:26;101653.00;;;10.60
58929;BMP180;44713;53.378;10.022;2023-04-21T07:23:54;101650.00;;;10.70
58929;BMP180;44713;53.378;10.022;2023-04-21T07:26:19;101657.00;;;10.80
58929;BMP180;44713;53.378;10.022;2023-04-21T07:28:45;101658.00;;;11.00
58929;BMP180;44713;53.378;10.022;2023-04-21T07:31:11;101657.00;;;11.00
58929;BMP180;44713;53.378;10.022;2023-04-21T07:33:36;101648.00;;;11.00
58929;BMP180;44713;53.378;10.022;2023-04-21T07:36:01;101658.00;;;11.00
58929;BMP180;44713;53.378;10.022;2023-04-21T07:38:27;101660.00;;;11.10
58929;BMP180;44713;53.378;10.022;2023-04-21T07:40:52;101658.00;;;11.30
58929;BMP180;44713;53.378;10.022;2023-04-21T07:43:17;101654.00;;;11.40
58929;BMP180;44713;53.378;10.022;2023-04-21T07:45:44;101649.00;;;11.40
58929;BMP180;44713;53.378;10.022;2023-04-21T07:48:09;101646.00;;;11.50
58929;BMP180;44713;53.378;10.022;2023-04-21T07:50:35;101650.00;;;11.60
58929;BMP180;44713;53.378;10.022;2023-04-21T07:53:01;101645.00;;;11.60
58929;BMP180;44713;53.378;10.022;2023-04-21T07:55:27;101643.00;;;11.70
58929;BMP180;44713;53.378;10.022;2023-04-21T07:57:52;101645.00;;;11.90
58929;BMP180;44713;53.378;10.022;2023-04-21T08:00:18;101634.00;;;12.00
58929;BMP180;44713;53.378;10.022;2023-04-21T08:02:43;101630.00;;;12.20
58929;BMP180;44713;53.378;10.022;2023-04-21T08:05:08;101632.00;;;12.20
58929;BMP180;44713;53.378;10.022;2023-04-21T08:07:34;101629.00;;;12.20
58929;BMP180;44713;53.378;10.022;2023-04-21T08:10:00;101628.00;;;12.30
58929;BMP180;44713;53.378;10.022;2023-04-21T08:12:26;101626.00;;;12.50
58929;BMP180;44713;53.378;10.022;2023-04-21T08:14:52;101627.00;;;12.60
58929;BMP180;44713;53.378;10.022;2023-04-21T08:17:17;101632.00;;;12.80
58929;BMP180;44713;53.378;10.022;2023-04-21T08:19:42;101622.00;;;12.90
58929;BMP180;44713;53.378;10.022;2023-04-21T08:22:08;101628.00;;;13.00
58929;BMP180;44713;53.378;10.022;2023-04-21T08:24:33;101620.00;;;13.10
58929;BMP180;44713;53.378;10.022;2023-04-21T08:26:59;101618.00;;;13.20
58929;BMP180;44713;53.378;10.022;2023-04-21T08:29:26;101613.00;;;13.30
58929;BMP180;44713;53.378;10.022;2023-04-21T08:31:52;101601.00;;;13.40
58929;BMP180;44713;53.378;10.022;2023-04-21T08:34:17;101613.00;;;13.50
58929;BMP180;44713;53.378;10.022;2023-04-21T08:36:44;101614.00;;;13.60
58929;BMP180;44713;53.378;10.022;2023-04-21T08:39:12;101607.00;;;13.70
58929;BMP180;44713;53.378;10.022;2023-04-21T08:41:38;101607.00;;;13.90
58929;BMP180;44713;53.378;10.022;2023-04-21T08:44:05;101612.00;;;14.00
58929;BMP180;44713;53.378;10.022;2023-04-21T08:46:31;101604.00;;;14.10
58929;BMP180;44713;53.378;10.022;2023-04-21T08:48:57;101604.00;;;14.20
58929;BMP180;44713;53.378;10.022;2023-04-21T08:51:23;101599.00;;;14.40
58929;BMP180;44713;53.378;10.022;2023-04-21T08:53:53;101599.00;;;14.60
58929;BMP180;44713;53.378;10.022;2023-04-21T08:56:19;101606.00;;;14.70
58929;BMP180;44713;53.378;10.022;2023-04-21T08:58:44;101593.00;;;14.80
58929;BMP180;44713;53.378;10.022;2023-04-21T09:01:10;101614.00;;;15.10
58929;BMP180;44713;53.378;10.022;2023-04-21T09:03:36;101592.00;;;15.20
58929;BMP180;44713;53.378;10.022;2023-04-21T09:06:06;101607.00;;;15.50
58929;BMP180;44713;53.378;10.022;2023-04-21T09:08:33;101603.00;;;15.60
58929;BMP180;44713;53.378;10.022;2023-04-21T09:10:59;101598.00;;;15.70
58929;BMP180;44713;53.378;10.022;2023-04-21T09:13:35;101601.00;;;15.80
58929;BMP180;44713;53.378;10.022;2023-04-21T09:16:03;101603.00;;;15.80
58929;BMP180;44713;53.378;10.022;2023-04-21T09:18:30;101604.00;;;16.00
58929;BMP180;44713;53.378;10.022;2023-04-21T09:21:15;101594.00;;;16.20
58929;BMP180;44713;53.378;10.022;2023-04-21T09:23:41;101599.00;;;16.30
58929;BMP180;44713;53.378;10.022;2023-04-21T09:26:07;101592.00;;;16.40
58929;BMP180;44713;53.378;10.022;2023-04-21T09:28:32;101590.00;;;16.50
58929;BMP180;44713;53.378;10.022;2023-04-21T09:30:58;101599.00;;;16.80
58929;BMP180;44713;53.378;10.022;2023-04-21T09:33:23;101592.00;;;16.80
58929;BMP180;44713;53.378;10.022;2023-04-21T09:35:49;101592.00;;;16.90
58929;BMP180;44713;53.378;10.022;2023-04-21T09:38:14;101582.00;;;17.00
58929;BMP180;44713;53.378;10.022;2023-04-21T09:40:40;101579.00;;;17.10
58929;BMP180;44713;53.378;10.022;2023-04-21T09:43:08;101582.00;;;17.20
58929;BMP180;44713;53.378;10.022;2023-04-21T09:45:34;101581.00;;;17.20
58929;BMP180;44713;53.378;10.022;2023-04-21T09:48:00;101569.00;;;17.40
58929;BMP180;44713;53.378;10.022;2023-04-21T09:50:27;101571.00;;;17.50
58929;BMP180;44713;53.378;10.022;2023-04-21T09:52:55;101570.00;;;17.70
58929;BMP180;44713;53.378;10.022;2023-04-21T09:55:24;101563.00;;;17.90
58929;BMP180;44713;53.378;10.022;2023-04-21T09:57:51;101560.00;;;18.00
58929;BMP180;44713;53.378;10.022;2023-04-21T10:00:24;101559.00;;;18.00
58929;BMP180;44713;53.378;10.022;2023-04-21T10:02:53;101554.00;;;18.10
58929;BMP180;44713;53.378;10.022;2023-04-21T10:05:18;101557.00;;;18.40
58929;BMP180;44713;53.378;10.022;2023-04-21T10:07:45;101555.00;;;18.50
58929;BMP180;44713;53.378;10.022;2023-04-21T10:10:28;101556.00;;;18.60
58929;BMP180;44713;53.378;10.022;2023-04-21T10:12:57;101548.00;;;18.80
58929;BMP180;44713;53.378;10.022;2023-04-21T10:15:40;101551.00;;;19.00
58929;BMP180;44713;53.378;10.022;2023-04-21T10:18:23;101548.00;;;19.00
58929;BMP180;44713;53.378;10.022;2023-04-21T10:21:02;101549.00;;;19.10
58929;BMP180;44713;53.378;10.022;2023-04-21T10:26:22;101539.00;;;19.30
58929;BMP180;44713;53.378;10.022;2023-04-21T10:29:00;101538.00;;;19.50
58929;BMP180;44713;53.378;10.022;2023-04-21T10:31:36;101522.00;;;19.60
58929;BMP180;44713;53.378;10.022;2023-04-21T10:39:44;101521.00;;;19.90
58929;BMP180;44713;53.378;10.022;2023-04-21T10:44:42;101514.00;;;20.50
58929;BMP180;44713;53.378;10.022;2023-04-21T10:47:07;101523.00;;;20.60
58929;BMP180;44713;53.378;10.022;2023-04-21T10:49:37;101509.00;;;20.70
58929;BMP180;44713;53.378;10.022;2023-04-21T10:52:06;101501.00;;;20.80
58929;BMP180;44713;53.378;10.022;2023-04-21T10:57:18;101493.00;;;21.10
58929;BMP180;44713;53.378;10.022;2023-04-21T10:59:46;101491.00;;;21.00
58929;BMP180;44713;53.378;10.022;2023-04-21T11:02:13;101496.00;;;21.40
58929;BMP180;44713;53.378;10.022;2023-04-21T11:04:39;101494.00;;;21.60
58929;BMP180;44713;53.378;10.022;2023-04-21T11:07:15;101493.00;;;21.70
58929;BMP180;44713;53.378;10.022;2023-04-21T11:09:42;101494.00;;;21.80
58929;BMP180;44713;53.378;10.022;2023-04-21T11:12:14;101490.00;;;21.70
58929;BMP180;44713;53.378;10.022;2023-04-21T11:14:41;101484.00;;;21.70
58929;BMP180;44713;53.378;10.022;2023-04-21T11:17:11;101483.00;;;21.70
58929;BMP180;44713;53.378;10.022;2023-04-21T11:19:38;101478.00;;;21.80
58929;BMP180;44713;53.378;10.022;2023-04-21T11:22:03;101474.00;;;22.10
58929;BMP180;44713;53.378;10.022;2023-04-21T11:24:33;101469.00;;;22.30
58929;BMP180;44713;53.378;10.022;2023-04-21T11:26:58;101470.00;;;22.40
58929;BMP180;44713;53.378;10.022;2023-04-21T11:29:26;101461.00;;;22.40
58929;BMP180;44713;53.378;10.022;2023-04-21T11:31:53;101460.00;;;22.60
58929;BMP180;44713;53.378;10.022;2023-04-21T11:34:20;101456.00;;;22.50
58929;BMP180;44713;53.378;10.022;2023-04-21T11:36:47;101453.00;;;22.40
58929;BMP180;44713;53.378;10.022;2023-04-21T11:39:15;101447.00;;;22.80
58929;BMP180;44713;53.378;10.022;2023-04-21T11:41:43;101441.00;;;22.80
58929;BMP180;44713;53.378;10.022;2023-04-21T11:44:10;101444.00;;;22.70
58929;BMP180;44713;53.378;10.022;2023-04-21T11:46:36;101423.00;;;22.50
58929;BMP180;44713;53.378;10.022;2023-04-21T11:49:07;101444.00;;;22.70
58929;BMP180;44713;53.378;10.022;2023-04-21T11:51:41;101436.00;;;22.40
58929;BMP180;44713;53.378;10.022;2023-04-21T11:54:12;101436.00;;;22.70
58929;BMP180;44713;53.378;10.022;2023-04-21T11:56:45;101436.00;;;23.00
58929;BMP180;44713;53.378;10.022;2023-04-21T11:59:15;101432.00;;;23.30
58929;BMP180;44713;53.378;10.022;2023-04-21T12:01:44;101426.00;;;23.40
58929;BMP180;44713;53.378;10.022;2023-04-21T12:04:17;101421.00;;;23.20
58929;BMP180;44713;53.378;10.022;2023-04-21T12:06:44;101427.00;;;23.30
58929;BMP180;44713;53.378;10.022;2023-04-21T12:09:16;101421.00;;;23.50
58929;BMP180;44713;53.378;10.022;2023-04-21T12:11:41;101419.00;;;23.60
58929;BMP180;44713;53.378;10.022;2023-04-21T12:14:07;101408.00;;;23.70
58929;BMP180;44713;53.378;10.022;2023-04-21T12:16:35;101412.00;;;23.80
58929;BMP180;44713;53.378;10.022;2023-04-21T12:19:01;101420.00;;;24.10
58929;BMP180;44713;53.378;10.022;2023-04-21T12:21:29;101405.00;;;24.00
58929;BMP180;44713;53.378;10.022;2023-04-21T12:23:56;101407.00;;;23.80
58929;BMP180;44713;53.378;10.022;2023-04-21T12:26:22;101405.00;;;23.50
58929;BMP180;44713;53.378;10.022;2023-04-21T12:28:49;101400.00;;;23.70
58929;BMP180;44713;53.378;10.022;2023-04-21T12:31:14;101412.00;;;23.90
58929;BMP180;44713;53.378;10.022;2023-04-21T12:33:40;101392.00;;;23.80
58929;BMP180;44713;53.378;10.022;2023-04-21T12:36:06;101396.00;;;24.20
58929;BMP180;44713;53.378;10.022;2023-04-21T12:38:31;101403.00;;;23.60
58929;BMP180;44713;53.378;10.022;2023-04-21T12:40:57;101396.00;;;23.40
58929;BMP180;44713;53.378;10.022;2023-04-21T12:43:23;101397.00;;;23.30
58929;BMP180;44713;53.378;10.022;2023-04-21T12:45:48;101392.00;;;23.00
58929;BMP180;44713;53.378;10.022;2023-04-21T12:48:14;101387.00;;;23.00
58929;BMP180;44713;53.378;10.022;2023-04-21T12:50:39;101389.00;;;22.90
58929;BMP180;44713;53.378;10.022;2023-04-21T12:53:06;101373.00;;;23.10
58929;BMP180;44713;53.378;10.022;2023-04-21T12:55:33;101385.00;;;23.40
58929;BMP180;44713;53.378;10.022;2023-04-21T12:57:59;101372.00;;;23.60
58929;BMP180;44713;53.378;10.022;2023-04-21T13:00:24;101387.00;;;23.40
58929;BMP180;44713;53.378;10.022;2023-04-21T13:02:49;101373.00;;;22.80
58929;BMP180;44713;53.378;10.022;2023-04-21T13:05:15;101369.00;;;22.60
58929;BMP180;44713;53.378;10.022;2023-04-21T13:07:40;101361.00;;;22.90
58929;BMP180;44713;53.378;10.022;2023-04-21T13:10:06;101351.00;;;23.50
58929;BMP180;44713;53.378;10.022;2023-04-21T13:12:32;101356.00;;;23.90
58929;BMP180;44713;53.378;10.022;2023-04-21T13:14:58;101351.00;;;24.30
58929;BMP180;44713;53.378;10.022;2023-04-21T13:17:23;101352.00;;;24.20
58929;BMP180;44713;53.378;10.022;2023-04-21T13:19:49;101358.00;;;23.80
58929;BMP180;44713;53.378;10.022;2023-04-21T13:22:14;101346.00;;;23.80
58929;BMP180;44713;53.378;10.022;2023-04-21T13:24:40;101362.00;;;23.80
58929;BMP180;44713;53.378;10.022;2023-04-21T13:27:05;101355.00;;;23.60
58929;BMP180;44713;53.378;10.022;2023-04-21T13:29:31;101344.00;;;23.30
58929;BMP180;44713;53.378;10.022;2023-04-21T13:32:03;101351.00;;;23.20
58929;BMP180;44713;53.378;10.022;2023-04-21T13:34:29;101351.00;;;23.10
58929;BMP180;44713;53.378;10.022;2023-04-21T13:36:55;101348.00;;;23.30
58929;BMP180;44713;53.378;10.022;2023-04-21T13:39:20;101337.00;;;23.60
58929;BMP180;44713;53.378;10.022;2023-04-21T13:41:47;101337.00;;;24.00
58929;BMP180;44713;53.378;10.022;2023-04-21T13:44:12;101320.00;;;24.50
58929;BMP180;44713;53.378;10.022;2023-04-21T13:46:38;101324.00;;;24.30
58929;BMP180;44713;53.378;10.022;2023-04-21T13:49:04;101323.00;;;24.20
58929;BMP180;44713;53.378;10.022;2023-04-21T13:51:30;101315.00;;;24.00
58929;BMP180;44713;53.378;10.022;2023-04-21T13:53:56;101304.00;;;23.40
58929;BMP180;44713;53.378;10.022;2023-04-21T13:56:22;101315.00;;;23.30
58929;BMP180;44713;53.378;10.022;2023-04-21T13:58:47;101309.00;;;23.30
58929;BMP180;44713;53.378;10.022;2023-04-21T14:01:13;101302.00;;;23.60